sensor_id;sensor_type;location;lat;lon;timestamp;P1;durP1;ratioP1;P2;durP2;ratioP2
48651;SDS011;34442;52.362;-1.302;2022-07-18T00:02:07;2.40;;;0.90;;
48651;SDS011;34442;52.362;-1.302;2022-07-18T00:04:34;1.92;;;1.10;;
48651;SDS011;34442;52.362;-1.302;2022-07-18T00:07:00;2.38;;;1.10;;
48651;SDS011;34442;52.362;-1.302;2022-07-18T00:09:26;2.08;;;1.00;;
48651;SDS011;34442;52.362;-1.302;2022-07-18T00:11:52;1.85;;;1.00;;
48651;SDS011;34442;52.362;-1.302;2022-07-18T00:14:19;2.50;;;1.10;;
48651;SDS011;34442;52.362;-1.302;2022-07-18T00:16:46;1.40;;;0.85;;
48651;SDS011;34442;52.362;-1.302;2022-07-18T00:19:13;2.33;;;1.10;;
48651;SDS011;34442;52.362;-1.302;2022-07-18T00:21:39;2.33;;;1.08;;
48651;SDS011;34442;52.362;-1.302;2022-07-18T00:24:05;1.98;;;1.05;;
48651;SDS011;34442;52.362;-1.302;2022-07-18T00:26:31;2.58;;;1.20;;
48651;SDS011;34442;52.362;-1.302;2022-07-18T00:28:58;1.58;;;0.90;;
48651;SDS011;34442;52.362;-1.302;2022-07-18T00:31:24;2.50;;;1.20;;
48651;SDS011;34442;52.362;-1.302;2022-07-18T00:33:49;2.53;;;1.00;;
48651;SDS011;34442;52.362;-1.302;2022-07-18T00:36:15;1.92;;;0.98;;
48651;SDS011;34442;52.362;-1.302;2022-07-18T00:38:41;1.67;;;0.90;;
48651;SDS011;34442;52.362;-1.302;2022-07-18T00:41:07;1.65;;;0.93;;
48651;SDS011;34442;52.362;-1.302;2022-07-18T00:43:33;2.33;;;1.02;;
48651;SDS011;34442;52.362;-1.302;2022-07-18T00:46:00;2.13;;;1.13;;
48651;SDS011;34442;52.362;-1.302;2022-07-18T00:48:26;1.63;;;0.90;;
48651;SDS011;34442;52.362;-1.302;2022-07-18T00:50:52;1.63;;;0.95;;
48651;SDS011;34442;52.362;-1.302;2022-07-18T00:53:18;2.00;;;0.95;;
48651;SDS011;34442;52.362;-1.302;2022-07-18T00:55:44;1.58;;;0.90;;
48651;SDS011;34442;52.362;-1.302;2022-07-18T00:58:12;2.53;;;1.10;;
48651;SDS011;34442;52.362;-1.302;2022-07-18T01:00:39;2.65;;;1.20;;
48651;SDS011;34442;52.362;-1.302;2022-07-18T01:03:24;1.85;;;0.90;;
48651;SDS011;34442;52.362;-1.302;2022-07-18T01:05:50;1.83;;;1.10;;
48651;SDS011;34442;52.362;-1.302;2022-07-18T01:08:16;1.05;;;0.90;;
48651;SDS011;34442;52.362;-1.302;2022-07-18T01:10:42;1.10;;;0.73;;
48651;SDS011;34442;52.362;-1.302;2022-07-18T01:13:09;2.03;;;1.13;;
48651;SDS011;34442;52.362;-1.302;2022-07-18T01:15:35;2.67;;;1.20;;
48651;SDS011;34442;52.362;-1.302;2022-07-18T01:18:02;2.05;;;1.00;;
48651;SDS011;34442;52.362;-1.302;2022-07-18T01:20:29;2.08;;;1.13;;
48651;SDS011;34442;52.362;-1.302;2022-07-18T01:22:57;2.42;;;1.10;;
48651;SDS011;34442;52.362;-1.302;2022-07-18T01:25:24;2.67;;;1.15;;
48651;SDS011;34442;52.362;-1.302;2022-07-18T01:27:51;2.90;;;0.90;;
48651;SDS011;34442;52.362;-1.302;2022-07-18T01:30:17;3.05;;;1.20;;
48651;SDS011;34442;52.362;-1.302;2022-07-18T01:32:43;1.95;;;1.00;;
48651;SDS011;34442;52.362;-1.302;2022-07-18T01:35:09;2.05;;;1.00;;
48651;SDS011;34442;52.362;-1.302;2022-07-18T01:37:36;2.50;;;1.10;;
48651;SDS011;34442;52.362;-1.302;2022-07-18T01:40:06;1.60;;;0.90;;
48651;SDS011;34442;52.362;-1.302;2022-07-18T01:42:34;2.33;;;1.02;;
48651;SDS011;34442;52.362;-1.302;2022-07-18T01:45:00;2.30;;;1.00;;
48651;SDS011;34442;52.362;-1.302;2022-07-18T01:47:26;1.58;;;0.90;;
48651;SDS011;34442;52.362;-1.302;2022-07-18T01:49:52;2.17;;;1.05;;
48651;SDS011;34442;52.362;-1.302;2022-07-18T01:52:18;1.95;;;1.00;;
48651;SDS011;34442;52.362;-1.302;2022-07-18T01:54:44;2.08;;;1.00;;
48651;SDS011;34442;52.362;-1.302;2022-07-18T01:57:10;1.80;;;1.10;;
48651;SDS011;34442;52.362;-1.302;2022-07-18T01:59:36;2.10;;;1.05;;
48651;SDS011;34442;52.362;-1.302;2022-07-18T02:02:03;1.80;;;1.00;;
48651;SDS011;34442;52.362;-1.302;2022-07-18T02:04:30;1.70;;;0.90;;
48651;SDS011;34442;52.362;-1.302;2022-07-18T02:07:15;1.83;;;1.00;;
48651;SDS011;34442;52.362;-1.302;2022-07-18T02:09:41;1.77;;;1.10;;
48651;SDS011;34442;52.362;-1.302;2022-07-18T02:12:07;2.28;;;1.10;;
48651;SDS011;34442;52.362;-1.302;2022-07-18T02:14:33;2.67;;;1.15;;
48651;SDS011;34442;52.362;-1.302;2022-07-18T02:16:59;2.05;;;1.13;;
48651;SDS011;34442;52.362;-1.302;2022-07-18T02:19:25;2.08;;;1.08;;
48651;SDS011;34442;52.362;-1.302;2022-07-18T02:21:51;1.60;;;0.98;;
48651;SDS011;34442;52.362;-1.302;2022-07-18T02:24:17;2.50;;;1.30;;
48651;SDS011;34442;52.362;-1.302;2022-07-18T02:26:43;1.85;;;1.00;;
48651;SDS011;34442;52.362;-1.302;2022-07-18T02:29:09;2.40;;;1.10;;
48651;SDS011;34442;52.362;-1.302;2022-07-18T02:31:35;2.28;;;1.08;;
48651;SDS011;34442;52.362;-1.302;2022-07-18T02:34:02;2.30;;;1.20;;
48651;SDS011;34442;52.362;-1.302;2022-07-18T02:36:41;2.45;;;1.27;;
48651;SDS011;34442;52.362;-1.302;2022-07-18T02:39:08;2.22;;;1.20;;
48651;SDS011;34442;52.362;-1.302;2022-07-18T02:41:35;2.20;;;1.30;;
48651;SDS011;34442;52.362;-1.302;2022-07-18T02:44:01;2.30;;;1.33;;
48651;SDS011;34442;52.362;-1.302;2022-07-18T02:46:29;1.60;;;0.90;;
48651;SDS011;34442;52.362;-1.302;2022-07-18T02:48:55;2.65;;;1.40;;
48651;SDS011;34442;52.362;-1.302;2022-07-18T02:51:21;1.83;;;1.02;;
48651;SDS011;34442;52.362;-1.302;2022-07-18T02:53:47;2.55;;;1.30;;
48651;SDS011;34442;52.362;-1.302;2022-07-18T02:56:13;1.77;;;1.00;;
48651;SDS011;34442;52.362;-1.302;2022-07-18T02:58:39;2.40;;;1.10;;
48651;SDS011;34442;52.362;-1.302;2022-07-18T03:01:05;2.85;;;1.08;;
48651;SDS011;34442;52.362;-1.302;2022-07-18T03:03:32;1.90;;;0.90;;
48651;SDS011;34442;52.362;-1.302;2022-07-18T03:05:58;2.22;;;1.00;;
48651;SDS011;34442;52.362;-1.302;2022-07-18T03:08:24;2.08;;;0.98;;
48651;SDS011;34442;52.362;-1.302;2022-07-18T03:10:50;2.05;;;1.00;;
48651;SDS011;34442;52.362;-1.302;2022-07-18T03:13:16;1.52;;;1.00;;
48651;SDS011;34442;52.362;-1.302;2022-07-18T03:15:42;2.38;;;0.93;;
48651;SDS011;34442;52.362;-1.302;2022-07-18T03:18:08;1.52;;;0.90;;
48651;SDS011;34442;52.362;-1.302;2022-07-18T03:20:34;2.05;;;1.00;;
48651;SDS011;34442;52.362;-1.302;2022-07-18T03:23:03;2.28;;;1.00;;
48651;SDS011;34442;52.362;-1.302;2022-07-18T03:25:32;2.20;;;1.10;;
48651;SDS011;34442;52.362;-1.302;2022-07-18T03:27:59;1.90;;;1.08;;
48651;SDS011;34442;52.362;-1.302;2022-07-18T03:30:25;2.10;;;1.10;;
48651;SDS011;34442;52.362;-1.302;2022-07-18T03:32:51;2.35;;;1.20;;
48651;SDS011;34442;52.362;-1.302;2022-07-18T03:35:17;1.38;;;0.90;;
48651;SDS011;34442;52.362;-1.302;2022-07-18T03:37:43;1.63;;;0.98;;
48651;SDS011;34442;52.362;-1.302;2022-07-18T03:40:09;1.38;;;0.88;;
48651;SDS011;34442;52.362;-1.302;2022-07-18T03:42:39;1.60;;;0.90;;
48651;SDS011;34442;52.362;-1.302;2022-07-18T03:45:06;1.45;;;1.00;;
48651;SDS011;34442;52.362;-1.302;2022-07-18T03:47:33;1.83;;;0.98;;
48651;SDS011;34442;52.362;-1.302;2022-07-18T03:50:01;1.75;;;1.05;;
48651;SDS011;34442;52.362;-1.302;2022-07-18T03:52:27;1.33;;;0.93;;
48651;SDS011;34442;52.362;-1.302;2022-07-18T03:54:53;2.20;;;1.02;;
48651;SDS011;34442;52.362;-1.302;2022-07-18T03:57:20;1.42;;;0.88;;
48651;SDS011;34442;52.362;-1.302;2022-07-18T03:59:46;2.15;;;1.10;;
48651;SDS011;34442;52.362;-1.302;2022-07-18T04:02:12;2.05;;;1.02;;
48651;SDS011;34442;52.362;-1.302;2022-07-18T04:04:38;2.05;;;0.90;;
48651;SDS011;34442;52.362;-1.302;2022-07-18T04:07:04;1.98;;;1.10;;
48651;SDS011;34442;52.362;-1.302;2022-07-18T04:09:30;2.05;;;0.90;;
48651;SDS011;34442;52.362;-1.302;2022-07-18T04:11:56;2.22;;;1.10;;
48651;SDS011;34442;52.362;-1.302;2022-07-18T04:14:22;1.90;;;1.00;;
48651;SDS011;34442;52.362;-1.302;2022-07-18T04:16:48;1.85;;;1.00;;
48651;SDS011;34442;52.362;-1.302;2022-07-18T04:19:15;1.58;;;0.98;;
48651;SDS011;34442;52.362;-1.302;2022-07-18T04:21:42;2.55;;;1.30;;
48651;SDS011;34442;52.362;-1.302;2022-07-18T04:24:09;1.80;;;1.00;;
48651;SDS011;34442;52.362;-1.302;2022-07-18T04:26:35;1.38;;;0.90;;
48651;SDS011;34442;52.362;-1.302;2022-07-18T04:29:01;2.17;;;1.10;;
48651;SDS011;34442;52.362;-1.302;2022-07-18T04:31:27;2.25;;;1.17;;
48651;SDS011;34442;52.362;-1.302;2022-07-18T04:33:54;1.55;;;0.90;;
48651;SDS011;34442;52.362;-1.302;2022-07-18T04:36:20;1.85;;;1.00;;
48651;SDS011;34442;52.362;-1.302;2022-07-18T04:38:46;2.13;;;1.10;;
48651;SDS011;34442;52.362;-1.302;2022-07-18T04:41:12;1.45;;;0.90;;
48651;SDS011;34442;52.362;-1.302;2022-07-18T04:43:38;1.92;;;1.02;;
48651;SDS011;34442;52.362;-1.302;2022-07-18T04:46:04;1.75;;;1.00;;
48651;SDS011;34442;52.362;-1.302;2022-07-18T04:48:30;1.65;;;0.98;;
48651;SDS011;34442;52.362;-1.302;2022-07-18T04:50:57;1.48;;;0.90;;
48651;SDS011;34442;52.362;-1.302;2022-07-18T04:53:23;1.60;;;0.93;;
48651;SDS011;34442;52.362;-1.302;2022-07-18T04:55:49;1.42;;;0.95;;
48651;SDS011;34442;52.362;-1.302;2022-07-18T04:58:15;1.80;;;1.08;;
48651;SDS011;34442;52.362;-1.302;2022-07-18T05:00:41;1.05;;;0.85;;
48651;SDS011;34442;52.362;-1.302;2022-07-18T05:03:07;1.45;;;0.80;;
48651;SDS011;34442;52.362;-1.302;2022-07-18T05:05:33;1.63;;;0.90;;
48651;SDS011;34442;52.362;-1.302;2022-07-18T05:07:59;2.35;;;1.00;;
48651;SDS011;34442;52.362;-1.302;2022-07-18T05:10:25;0.95;;;0.80;;
48651;SDS011;34442;52.362;-1.302;2022-07-18T05:12:52;2.03;;;0.90;;
48651;SDS011;34442;52.362;-1.302;2022-07-18T05:15:20;2.15;;;0.98;;
48651;SDS011;34442;52.362;-1.302;2022-07-18T05:17:47;1.27;;;0.90;;
48651;SDS011;34442;52.362;-1.302;2022-07-18T05:20:18;2.80;;;0.90;;
48651;SDS011;34442;52.362;-1.302;2022-07-18T05:22:46;1.25;;;0.77;;
48651;SDS011;34442;52.362;-1.302;2022-07-18T05:25:12;1.60;;;0.80;;
48651;SDS011;34442;52.362;-1.302;2022-07-18T05:27:39;1.30;;;0.85;;
48651;SDS011;34442;52.362;-1.302;2022-07-18T05:30:07;1.77;;;0.90;;
48651;SDS011;34442;52.362;-1.302;2022-07-18T05:32:35;1.40;;;0.90;;
48651;SDS011;34442;52.362;-1.302;2022-07-18T05:35:01;2.15;;;1.00;;
48651;SDS011;34442;52.362;-1.302;2022-07-18T05:37:28;1.85;;;0.90;;
48651;SDS011;34442;52.362;-1.302;2022-07-18T05:39:54;1.83;;;0.95;;
48651;SDS011;34442;52.362;-1.302;2022-07-18T05:42:20;1.83;;;1.00;;
48651;SDS011;34442;52.362;-1.302;2022-07-18T05:44:47;2.30;;;1.17;;
48651;SDS011;34442;52.362;-1.302;2022-07-18T05:47:13;1.90;;;0.90;;
48651;SDS011;34442;52.362;-1.302;2022-07-18T05:49:39;1.42;;;0.90;;
48651;SDS011;34442;52.362;-1.302;2022-07-18T05:52:05;2.08;;;1.00;;
48651;SDS011;34442;52.362;-1.302;2022-07-18T05:54:32;2.05;;;1.10;;
48651;SDS011;34442;52.362;-1.302;2022-07-18T05:56:58;1.55;;;0.90;;
48651;SDS011;34442;52.362;-1.302;2022-07-18T05:59:24;3.22;;;1.10;;
48651;SDS011;34442;52.362;-1.302;2022-07-18T06:01:50;2.42;;;1.05;;
48651;SDS011;34442;52.362;-1.302;2022-07-18T06:04:16;2.03;;;1.02;;
48651;SDS011;34442;52.362;-1.302;2022-07-18T06:06:42;1.67;;;0.93;;
48651;SDS011;34442;52.362;-1.302;2022-07-18T06:09:10;2.22;;;1.00;;
48651;SDS011;34442;52.362;-1.302;2022-07-18T06:11:36;1.67;;;0.93;;
48651;SDS011;34442;52.362;-1.302;2022-07-18T06:14:02;1.77;;;0.80;;
48651;SDS011;34442;52.362;-1.302;2022-07-18T06:16:29;1.40;;;0.98;;
48651;SDS011;34442;52.362;-1.302;2022-07-18T06:18:56;1.05;;;0.80;;
48651;SDS011;34442;52.362;-1.302;2022-07-18T06:21:22;1.45;;;0.93;;
48651;SDS011;34442;52.362;-1.302;2022-07-18T06:23:48;1.58;;;0.90;;
48651;SDS011;34442;52.362;-1.302;2022-07-18T06:26:14;2.33;;;1.10;;
48651;SDS011;34442;52.362;-1.302;2022-07-18T06:28:41;1.60;;;0.90;;
48651;SDS011;34442;52.362;-1.302;2022-07-18T06:31:07;1.65;;;0.77;;
48651;SDS011;34442;52.362;-1.302;2022-07-18T06:33:33;0.95;;;0.63;;
48651;SDS011;34442;52.362;-1.302;2022-07-18T06:35:59;1.40;;;0.82;;
48651;SDS011;34442;52.362;-1.302;2022-07-18T06:38:25;2.03;;;1.10;;
48651;SDS011;34442;52.362;-1.302;2022-07-18T06:40:51;2.13;;;0.80;;
48651;SDS011;34442;52.362;-1.302;2022-07-18T06:43:17;1.20;;;0.85;;
48651;SDS011;34442;52.362;-1.302;2022-07-18T06:45:46;1.42;;;0.85;;
48651;SDS011;34442;52.362;-1.302;2022-07-18T06:48:13;1.60;;;0.98;;
48651;SDS011;34442;52.362;-1.302;2022-07-18T06:50:39;1.85;;;0.95;;
48651;SDS011;34442;52.362;-1.302;2022-07-18T06:53:06;2.13;;;1.10;;
48651;SDS011;34442;52.362;-1.302;2022-07-18T06:55:32;3.13;;;1.10;;
48651;SDS011;34442;52.362;-1.302;2022-07-18T06:57:58;1.70;;;0.93;;
48651;SDS011;34442;52.362;-1.302;2022-07-18T07:00:24;1.42;;;0.88;;
48651;SDS011;34442;52.362;-1.302;2022-07-18T07:02:52;2.60;;;1.00;;
48651;SDS011;34442;52.362;-1.302;2022-07-18T07:05:19;1.88;;;1.00;;
48651;SDS011;34442;52.362;-1.302;2022-07-18T07:07:46;1.92;;;0.98;;
48651;SDS011;34442;52.362;-1.302;2022-07-18T07:10:13;2.10;;;1.00;;
48651;SDS011;34442;52.362;-1.302;2022-07-18T07:12:42;2.10;;;0.88;;
48651;SDS011;34442;52.362;-1.302;2022-07-18T07:15:09;1.15;;;0.60;;
48651;SDS011;34442;52.362;-1.302;2022-07-18T07:17:36;1.20;;;0.75;;
48651;SDS011;34442;52.362;-1.302;2022-07-18T07:20:03;2.00;;;0.93;;
48651;SDS011;34442;52.362;-1.302;2022-07-18T07:22:31;1.33;;;0.80;;
48651;SDS011;34442;52.362;-1.302;2022-07-18T07:25:06;1.65;;;0.90;;
48651;SDS011;34442;52.362;-1.302;2022-07-18T07:27:32;1.75;;;0.88;;
48651;SDS011;34442;52.362;-1.302;2022-07-18T07:29:58;1.65;;;0.90;;
48651;SDS011;34442;52.362;-1.302;2022-07-18T07:32:24;1.15;;;0.80;;
48651;SDS011;34442;52.362;-1.302;2022-07-18T07:34:50;1.88;;;0.88;;
48651;SDS011;34442;52.362;-1.302;2022-07-18T07:37:16;1.23;;;0.70;;
48651;SDS011;34442;52.362;-1.302;2022-07-18T07:39:42;2.28;;;0.93;;
48651;SDS011;34442;52.362;-1.302;2022-07-18T07:42:08;1.88;;;0.82;;
48651;SDS011;34442;52.362;-1.302;2022-07-18T07:44:34;1.30;;;0.95;;
48651;SDS011;34442;52.362;-1.302;2022-07-18T07:47:00;1.33;;;0.88;;
48651;SDS011;34442;52.362;-1.302;2022-07-18T07:49:26;1.27;;;0.73;;
48651;SDS011;34442;52.362;-1.302;2022-07-18T07:51:53;2.47;;;1.02;;
48651;SDS011;34442;52.362;-1.302;2022-07-18T07:54:19;1.40;;;0.70;;
48651;SDS011;34442;52.362;-1.302;2022-07-18T07:56:45;2.03;;;1.00;;
48651;SDS011;34442;52.362;-1.302;2022-07-18T07:59:11;2.40;;;0.90;;
48651;SDS011;34442;52.362;-1.302;2022-07-18T08:01:37;1.92;;;0.93;;
48651;SDS011;34442;52.362;-1.302;2022-07-18T08:04:03;1.63;;;0.80;;
48651;SDS011;34442;52.362;-1.302;2022-07-18T08:06:29;1.80;;;0.90;;
48651;SDS011;34442;52.362;-1.302;2022-07-18T08:08:55;1.42;;;0.80;;
48651;SDS011;34442;52.362;-1.302;2022-07-18T08:11:22;1.48;;;0.85;;
48651;SDS011;34442;52.362;-1.302;2022-07-18T08:13:48;1.23;;;0.73;;
48651;SDS011;34442;52.362;-1.302;2022-07-18T08:16:14;1.60;;;0.80;;
48651;SDS011;34442;52.362;-1.302;2022-07-18T08:18:40;1.52;;;0.88;;
48651;SDS011;34442;52.362;-1.302;2022-07-18T08:21:06;1.48;;;0.80;;
48651;SDS011;34442;52.362;-1.302;2022-07-18T08:23:32;1.38;;;0.57;;
48651;SDS011;34442;52.362;-1.302;2022-07-18T08:25:59;1.25;;;0.60;;
48651;SDS011;34442;52.362;-1.302;2022-07-18T08:28:25;1.52;;;0.80;;
48651;SDS011;34442;52.362;-1.302;2022-07-18T08:30:51;1.65;;;0.82;;
48651;SDS011;34442;52.362;-1.302;2022-07-18T08:33:17;1.33;;;0.80;;
48651;SDS011;34442;52.362;-1.302;2022-07-18T08:35:43;1.30;;;0.90;;
48651;SDS011;34442;52.362;-1.302;2022-07-18T08:38:09;0.75;;;0.60;;
48651;SDS011;34442;52.362;-1.302;2022-07-18T08:40:36;1.45;;;0.80;;
48651;SDS011;34442;52.362;-1.302;2022-07-18T08:43:03;1.73;;;0.90;;
48651;SDS011;34442;52.362;-1.302;2022-07-18T08:45:29;2.25;;;1.00;;
48651;SDS011;34442;52.362;-1.302;2022-07-18T08:47:56;1.17;;;0.80;;
48651;SDS011;34442;52.362;-1.302;2022-07-18T08:50:22;1.63;;;0.90;;
48651;SDS011;34442;52.362;-1.302;2022-07-18T08:52:48;1.58;;;0.82;;
48651;SDS011;34442;52.362;-1.302;2022-07-18T08:55:15;1.30;;;0.82;;
48651;SDS011;34442;52.362;-1.302;2022-07-18T08:57:42;1.38;;;0.70;;
48651;SDS011;34442;52.362;-1.302;2022-07-18T09:00:08;1.05;;;0.68;;
48651;SDS011;34442;52.362;-1.302;2022-07-18T09:02:35;1.00;;;0.57;;
48651;SDS011;34442;52.362;-1.302;2022-07-18T09:05:03;0.93;;;0.60;;
48651;SDS011;34442;52.362;-1.302;2022-07-18T09:07:31;1.60;;;0.85;;
48651;SDS011;34442;52.362;-1.302;2022-07-18T09:10:04;2.03;;;0.80;;
48651;SDS011;34442;52.362;-1.302;2022-07-18T09:12:31;1.63;;;0.90;;
48651;SDS011;34442;52.362;-1.302;2022-07-18T09:14:57;0.93;;;0.73;;
48651;SDS011;34442;52.362;-1.302;2022-07-18T09:20:08;1.52;;;0.90;;
48651;SDS011;34442;52.362;-1.302;2022-07-18T09:22:39;1.38;;;0.80;;
48651;SDS011;34442;52.362;-1.302;2022-07-18T09:25:08;1.35;;;0.80;;
48651;SDS011;34442;52.362;-1.302;2022-07-18T09:33:04;0.90;;;0.65;;
48651;SDS011;34442;52.362;-1.302;2022-07-18T09:35:36;1.40;;;0.75;;
48651;SDS011;34442;52.362;-1.302;2022-07-18T09:38:08;0.80;;;0.50;;
48651;SDS011;34442;52.362;-1.302;2022-07-18T09:40:39;1.48;;;0.70;;
48651;SDS011;34442;52.362;-1.302;2022-07-18T09:43:10;1.02;;;0.70;;
48651;SDS011;34442;52.362;-1.302;2022-07-18T09:48:14;2.10;;;0.90;;
48651;SDS011;34442;52.362;-1.302;2022-07-18T09:53:19;1.17;;;0.75;;
48651;SDS011;34442;52.362;-1.302;2022-07-18T09:55:51;1.10;;;0.60;;
48651;SDS011;34442;52.362;-1.302;2022-07-18T09:58:18;1.20;;;0.60;;
48651;SDS011;34442;52.362;-1.302;2022-07-18T10:00:50;1.73;;;0.90;;
48651;SDS011;34442;52.362;-1.302;2022-07-18T10:03:18;1.50;;;0.70;;
48651;SDS011;34442;52.362;-1.302;2022-07-18T10:05:47;1.70;;;0.90;;
48651;SDS011;34442;52.362;-1.302;2022-07-18T10:08:16;1.65;;;0.90;;
48651;SDS011;34442;52.362;-1.302;2022-07-18T10:10:44;1.10;;;0.77;;
48651;SDS011;34442;52.362;-1.302;2022-07-18T10:13:12;1.40;;;0.80;;
48651;SDS011;34442;52.362;-1.302;2022-07-18T10:15:40;1.25;;;0.85;;
48651;SDS011;34442;52.362;-1.302;2022-07-18T10:21:13;1.77;;;0.90;;
48651;SDS011;34442;52.362;-1.302;2022-07-18T10:23:44;2.00;;;0.93;;
48651;SDS011;34442;52.362;-1.302;2022-07-18T10:31:24;2.33;;;1.30;;
48651;SDS011;34442;52.362;-1.302;2022-07-18T10:33:51;1.58;;;0.95;;
48651;SDS011;34442;52.362;-1.302;2022-07-18T10:36:20;1.65;;;1.00;;
48651;SDS011;34442;52.362;-1.302;2022-07-18T10:39:03;3.33;;;0.80;;
48651;SDS011;34442;52.362;-1.302;2022-07-18T10:57:28;1.15;;;0.57;;
48651;SDS011;34442;52.362;-1.302;2022-07-18T10:59:59;1.17;;;0.60;;
48651;SDS011;34442;52.362;-1.302;2022-07-18T11:18:36;1.20;;;0.77;;
48651;SDS011;34442;52.362;-1.302;2022-07-18T11:23:47;0.95;;;0.60;;
48651;SDS011;34442;52.362;-1.302;2022-07-18T11:26:44;1.25;;;0.70;;
48651;SDS011;34442;52.362;-1.302;2022-07-18T11:29:14;1.00;;;0.60;;
48651;SDS011;34442;52.362;-1.302;2022-07-18T11:31:43;0.68;;;0.60;;
48651;SDS011;34442;52.362;-1.302;2022-07-18T11:34:09;0.98;;;0.63;;
48651;SDS011;34442;52.362;-1.302;2022-07-18T11:36:35;1.08;;;0.80;;
48651;SDS011;34442;52.362;-1.302;2022-07-18T11:39:07;0.90;;;0.50;;
48651;SDS011;34442;52.362;-1.302;2022-07-18T11:41:38;1.08;;;0.70;;
48651;SDS011;34442;52.362;-1.302;2022-07-18T11:44:10;1.15;;;0.50;;
48651;SDS011;34442;52.362;-1.302;2022-07-18T11:46:42;0.90;;;0.60;;
48651;SDS011;34442;52.362;-1.302;2022-07-18T11:49:09;1.27;;;0.80;;
48651;SDS011;34442;52.362;-1.302;2022-07-18T11:51:36;1.58;;;0.70;;
48651;SDS011;34442;52.362;-1.302;2022-07-18T11:54:04;1.15;;;0.70;;
48651;SDS011;34442;52.362;-1.302;2022-07-18T11:56:31;1.42;;;0.60;;
48651;SDS011;34442;52.362;-1.302;2022-07-18T11:58:57;1.35;;;0.60;;
48651;SDS011;34442;52.362;-1.302;2022-07-18T12:01:30;1.00;;;0.60;;
48651;SDS011;34442;52.362;-1.302;2022-07-18T12:03:57;0.95;;;0.60;;
48651;SDS011;34442;52.362;-1.302;2022-07-18T12:06:24;0.93;;;0.70;;
48651;SDS011;34442;52.362;-1.302;2022-07-18T12:08:53;1.15;;;0.60;;
48651;SDS011;34442;52.362;-1.302;2022-07-18T12:14:01;0.88;;;0.50;;
48651;SDS011;34442;52.362;-1.302;2022-07-18T12:19:04;1.55;;;0.90;;
48651;SDS011;34442;52.362;-1.302;2022-07-18T12:27:06;0.63;;;0.50;;
48651;SDS011;34442;52.362;-1.302;2022-07-18T12:32:30;0.88;;;0.60;;
48651;SDS011;34442;52.362;-1.302;2022-07-18T12:35:00;0.77;;;0.60;;
48651;SDS011;34442;52.362;-1.302;2022-07-18T12:39:56;1.25;;;0.68;;
48651;SDS011;34442;52.362;-1.302;2022-07-18T12:42:41;0.50;;;0.50;;
48651;SDS011;34442;52.362;-1.302;2022-07-18T12:45:08;1.58;;;0.80;;
48651;SDS011;34442;52.362;-1.302;2022-07-18T12:47:36;0.60;;;0.50;;
48651;SDS011;34442;52.362;-1.302;2022-07-18T12:50:02;0.95;;;0.60;;
48651;SDS011;34442;52.362;-1.302;2022-07-18T12:52:29;0.93;;;0.52;;
48651;SDS011;34442;52.362;-1.302;2022-07-18T12:54:56;0.93;;;0.50;;
48651;SDS011;34442;52.362;-1.302;2022-07-18T12:57:22;1.30;;;0.70;;
48651;SDS011;34442;52.362;-1.302;2022-07-18T12:59:50;1.17;;;0.50;;
48651;SDS011;34442;52.362;-1.302;2022-07-18T13:02:17;1.23;;;0.77;;
48651;SDS011;34442;52.362;-1.302;2022-07-18T13:04:44;0.80;;;0.68;;
48651;SDS011;34442;52.362;-1.302;2022-07-18T13:07:10;0.75;;;0.50;;
48651;SDS011;34442;52.362;-1.302;2022-07-18T13:09:37;0.90;;;0.50;;
48651;SDS011;34442;52.362;-1.302;2022-07-18T13:12:03;0.75;;;0.50;;
48651;SDS011;34442;52.362;-1.302;2022-07-18T13:14:30;1.45;;;0.95;;
48651;SDS011;34442;52.362;-1.302;2022-07-18T13:16:56;0.50;;;0.40;;
48651;SDS011;34442;52.362;-1.302;2022-07-18T13:19:22;1.38;;;0.63;;
48651;SDS011;34442;52.362;-1.302;2022-07-18T13:21:48;1.20;;;0.70;;
48651;SDS011;34442;52.362;-1.302;2022-07-18T13:24:14;0.47;;;0.40;;
48651;SDS011;34442;52.362;-1.302;2022-07-18T13:26:41;0.85;;;0.60;;
48651;SDS011;34442;52.362;-1.302;2022-07-18T13:29:08;0.47;;;0.47;;
48651;SDS011;34442;52.362;-1.302;2022-07-18T13:31:34;0.68;;;0.68;;
48651;SDS011;34442;52.362;-1.302;2022-07-18T13:34:02;1.15;;;0.82;;
48651;SDS011;34442;52.362;-1.302;2022-07-18T13:36:28;0.90;;;0.60;;
48651;SDS011;34442;52.362;-1.302;2022-07-18T13:38:55;0.70;;;0.60;;
48651;SDS011;34442;52.362;-1.302;2022-07-18T13:41:21;1.27;;;0.68;;
48651;SDS011;34442;52.362;-1.302;2022-07-18T13:43:47;0.80;;;0.50;;
48651;SDS011;34442;52.362;-1.302;2022-07-18T13:46:13;0.68;;;0.60;;
48651;SDS011;34442;52.362;-1.302;2022-07-18T13:48:39;0.82;;;0.60;;
48651;SDS011;34442;52.362;-1.302;2022-07-18T13:51:05;1.67;;;0.70;;
48651;SDS011;34442;52.362;-1.302;2022-07-18T13:53:32;1.90;;;0.70;;
48651;SDS011;34442;52.362;-1.302;2022-07-18T13:55:58;0.60;;;0.50;;
48651;SDS011;34442;52.362;-1.302;2022-07-18T13:58:24;1.05;;;0.50;;
48651;SDS011;34442;52.362;-1.302;2022-07-18T14:00:51;0.95;;;0.60;;
48651;SDS011;34442;52.362;-1.302;2022-07-18T14:03:17;0.95;;;0.47;;
48651;SDS011;34442;52.362;-1.302;2022-07-18T14:05:45;1.35;;;0.60;;
48651;SDS011;34442;52.362;-1.302;2022-07-18T14:08:11;1.05;;;0.65;;
48651;SDS011;34442;52.362;-1.302;2022-07-18T14:10:37;1.02;;;0.40;;
48651;SDS011;34442;52.362;-1.302;2022-07-18T14:13:06;0.80;;;0.57;;
48651;SDS011;34442;52.362;-1.302;2022-07-18T14:15:32;1.10;;;0.70;;
48651;SDS011;34442;52.362;-1.302;2022-07-18T14:17:59;0.70;;;0.50;;
48651;SDS011;34442;52.362;-1.302;2022-07-18T14:20:26;0.38;;;0.38;;
48651;SDS011;34442;52.362;-1.302;2022-07-18T14:22:52;1.08;;;0.80;;
48651;SDS011;34442;52.362;-1.302;2022-07-18T14:25:18;0.98;;;0.70;;
48651;SDS011;34442;52.362;-1.302;2022-07-18T14:27:44;1.85;;;0.77;;
48651;SDS011;34442;52.362;-1.302;2022-07-18T14:30:11;0.70;;;0.60;;
48651;SDS011;34442;52.362;-1.302;2022-07-18T14:32:39;0.88;;;0.52;;
48651;SDS011;34442;52.362;-1.302;2022-07-18T14:35:06;2.33;;;0.90;;
48651;SDS011;34442;52.362;-1.302;2022-07-18T14:37:33;1.10;;;0.70;;
48651;SDS011;34442;52.362;-1.302;2022-07-18T14:40:00;1.40;;;0.80;;
48651;SDS011;34442;52.362;-1.302;2022-07-18T14:42:26;1.92;;;0.80;;
48651;SDS011;34442;52.362;-1.302;2022-07-18T14:44:52;0.82;;;0.70;;
48651;SDS011;34442;52.362;-1.302;2022-07-18T14:47:19;1.13;;;0.70;;
48651;SDS011;34442;52.362;-1.302;2022-07-18T14:49:45;1.13;;;0.68;;
48651;SDS011;34442;52.362;-1.302;2022-07-18T14:52:11;1.13;;;0.60;;
48651;SDS011;34442;52.362;-1.302;2022-07-18T14:54:37;0.82;;;0.80;;
48651;SDS011;34442;52.362;-1.302;2022-07-18T14:57:03;1.15;;;0.82;;
48651;SDS011;34442;52.362;-1.302;2022-07-18T14:59:29;1.35;;;0.70;;
48651;SDS011;34442;52.362;-1.302;2022-07-18T15:01:56;0.57;;;0.50;;
48651;SDS011;34442;52.362;-1.302;2022-07-18T15:04:24;0.90;;;0.68;;
48651;SDS011;34442;52.362;-1.302;2022-07-18T15:06:51;0.93;;;0.60;;
48651;SDS011;34442;52.362;-1.302;2022-07-18T15:09:17;1.05;;;0.60;;
48651;SDS011;34442;52.362;-1.302;2022-07-18T15:11:43;0.73;;;0.65;;
48651;SDS011;34442;52.362;-1.302;2022-07-18T15:14:09;0.80;;;0.60;;
48651;SDS011;34442;52.362;-1.302;2022-07-18T15:16:36;0.90;;;0.60;;
48651;SDS011;34442;52.362;-1.302;2022-07-18T15:19:02;0.55;;;0.50;;
48651;SDS011;34442;52.362;-1.302;2022-07-18T15:21:29;1.88;;;0.95;;
48651;SDS011;34442;52.362;-1.302;2022-07-18T15:23:55;0.70;;;0.50;;
48651;SDS011;34442;52.362;-1.302;2022-07-18T15:26:22;1.08;;;0.55;;
48651;SDS011;34442;52.362;-1.302;2022-07-18T15:28:48;1.65;;;0.55;;
48651;SDS011;34442;52.362;-1.302;2022-07-18T15:31:14;0.95;;;0.80;;
48651;SDS011;34442;52.362;-1.302;2022-07-18T15:33:40;0.73;;;0.60;;
48651;SDS011;34442;52.362;-1.302;2022-07-18T15:36:07;1.05;;;0.73;;
48651;SDS011;34442;52.362;-1.302;2022-07-18T15:38:33;1.02;;;0.55;;
48651;SDS011;34442;52.362;-1.302;2022-07-18T15:40:59;0.65;;;0.60;;
48651;SDS011;34442;52.362;-1.302;2022-07-18T15:43:25;1.48;;;0.65;;
48651;SDS011;34442;52.362;-1.302;2022-07-18T15:45:51;0.75;;;0.60;;